createdAt,value
2018-04-07T00:02:12.475Z,51.00
2018-04-07T00:04:40.504Z,51.00
2018-04-07T00:07:08.543Z,50.60
2018-04-07T00:09:36.571Z,51.90
2018-04-07T00:12:04.603Z,51.60
2018-04-07T00:14:32.647Z,50.70
2018-04-07T00:17:00.688Z,50.90
2018-04-07T00:19:28.752Z,51.60
2018-04-07T00:21:56.792Z,49.60
2018-04-07T00:24:24.814Z,50.00
2018-04-07T00:26:52.852Z,50.70
2018-04-07T00:29:20.890Z,50.70
2018-04-07T00:31:49.707Z,51.80
2018-04-07T00:34:17.743Z,51.70
2018-04-07T00:36:45.770Z,52.30
2018-04-07T00:39:13.808Z,53.00
2018-04-07T00:41:42.625Z,53.20
2018-04-07T00:44:10.660Z,53.10
2018-04-07T00:46:38.698Z,53.30
2018-04-07T00:49:06.755Z,53.20
2018-04-07T00:51:34.800Z,54.10
2018-04-07T00:54:02.830Z,54.20
2018-04-07T00:56:30.876Z,53.90
2018-04-07T00:58:58.912Z,53.80
2018-04-07T01:01:26.939Z,54.00
2018-04-07T01:03:54.985Z,53.70
2018-04-07T01:06:23.035Z,53.30
2018-04-07T01:08:51.055Z,53.00
2018-04-07T01:11:19.096Z,53.20
2018-04-07T01:13:47.128Z,52.70
2018-04-07T01:16:15.923Z,53.60
2018-04-07T01:18:43.958Z,53.60
2018-04-07T01:21:11.995Z,54.30
2018-04-07T01:23:40.034Z,53.90
2018-04-07T01:26:08.845Z,54.60
2018-04-07T01:28:36.879Z,54.60
2018-04-07T01:31:04.907Z,54.30
2018-04-07T01:33:32.946Z,54.80
2018-04-07T01:36:00.975Z,55.00
2018-04-07T01:38:29.003Z,55.50
2018-04-07T01:40:57.057Z,55.60
2018-04-07T01:43:25.087Z,55.50
2018-04-07T01:45:53.123Z,55.90
2018-04-07T01:48:21.168Z,55.50
2018-04-07T01:50:49.194Z,56.40
2018-04-07T01:53:17.229Z,56.30
2018-04-07T01:55:45.276Z,56.30
2018-04-07T01:58:14.091Z,55.70
2018-04-07T02:00:42.128Z,55.60
2018-04-07T02:03:10.935Z,55.80
2018-04-07T02:05:38.967Z,55.70
2018-04-07T02:10:54.031Z,56.60
2018-04-07T02:13:22.068Z,56.60
2018-04-07T02:15:53.311Z,56.70
2018-04-07T02:18:21.338Z,56.70
2018-04-07T02:20:49.458Z,56.70
2018-04-07T02:23:17.507Z,57.40
2018-04-07T02:25:45.535Z,57.50
2018-04-07T02:28:13.558Z,57.70
2018-04-07T02:30:42.364Z,57.80
2018-04-07T02:33:10.400Z,57.70
2018-04-07T02:35:38.450Z,58.00
2018-04-07T02:38:06.501Z,57.90
2018-04-07T02:40:34.524Z,58.50
2018-04-07T02:43:03.323Z,57.50
2018-04-07T02:45:31.378Z,57.50
2018-04-07T02:47:59.415Z,57.20
2018-04-07T02:50:27.447Z,57.20
2018-04-07T02:52:55.478Z,56.90
2018-04-07T02:55:23.531Z,58.00
2018-04-07T02:57:51.568Z,57.00
2018-04-07T03:00:19.596Z,58.20
2018-04-07T03:02:47.647Z,56.80
2018-04-07T03:05:15.678Z,57.20
2018-04-07T03:07:43.724Z,56.70
2018-04-07T03:10:11.767Z,58.00
2018-04-07T03:12:39.791Z,56.90
2018-04-07T03:15:07.839Z,57.20
2018-04-07T03:17:35.870Z,57.70
2018-04-07T03:20:03.894Z,58.30
2018-04-07T03:22:31.943Z,57.00
2018-04-07T03:24:59.976Z,57.30
2018-04-07T03:27:28.004Z,57.90
2018-04-07T03:29:56.039Z,58.30
2018-04-07T03:32:24.093Z,58.20
2018-04-07T03:34:52.119Z,57.70
2018-04-07T03:37:20.927Z,57.80
2018-04-07T03:39:48.967Z,57.70
2018-04-07T03:42:16.999Z,58.00
2018-04-07T03:44:45.052Z,58.40
2018-04-07T03:47:13.094Z,57.90
2018-04-07T03:49:41.896Z,58.10
2018-04-07T03:52:09.923Z,58.10
2018-04-07T03:54:37.963Z,57.70
2018-04-07T03:57:05.995Z,58.10
2018-04-07T03:59:34.807Z,58.00
2018-04-07T04:02:02.883Z,57.90
2018-04-07T04:04:30.899Z,57.90
2018-04-07T04:06:58.940Z,57.50
2018-04-07T04:09:27.227Z,57.50
2018-04-07T04:11:56.052Z,57.90
2018-04-07T04:14:24.078Z,57.50
2018-04-07T04:16:52.111Z,57.70
2018-04-07T04:19:20.923Z,57.30
2018-04-07T04:21:48.952Z,57.30
2018-04-07T04:24:16.979Z,58.40
2018-04-07T04:26:45.011Z,57.90
2018-04-07T04:29:13.811Z,57.60
2018-04-07T04:31:42.600Z,57.60
2018-04-07T04:34:14.822Z,57.60
2018-04-07T04:36:42.856Z,57.40
2018-04-07T04:39:10.883Z,57.10
2018-04-07T04:41:38.931Z,57.20
2018-04-07T04:44:06.967Z,57.00
2018-04-07T04:46:35.007Z,56.90
2018-04-07T04:49:03.051Z,57.00
2018-04-07T04:51:31.097Z,57.10
2018-04-07T04:53:59.134Z,56.70
2018-04-07T04:56:27.175Z,57.20
2018-04-07T04:58:55.206Z,56.80
2018-04-07T05:01:23.235Z,56.90
2018-04-07T05:03:52.050Z,57.20
2018-04-07T05:06:20.087Z,56.40
2018-04-07T05:08:48.115Z,56.50
2018-04-07T05:11:16.155Z,56.40
2018-04-07T05:13:44.959Z,56.50
2018-04-07T05:16:12.991Z,56.50
2018-04-07T05:18:41.035Z,56.30
2018-04-07T05:21:09.071Z,56.60
2018-04-07T05:23:37.124Z,56.40
2018-04-07T05:26:05.935Z,57.30
2018-04-07T05:28:33.966Z,57.20
2018-04-07T05:31:01.999Z,57.70
2018-04-07T05:33:30.063Z,57.60
2018-04-07T05:35:58.106Z,57.00
2018-04-07T05:38:26.958Z,57.50
2018-04-07T05:40:54.964Z,57.40
2018-04-07T05:43:23.006Z,56.70
2018-04-07T05:45:51.097Z,56.80
2018-04-07T05:48:19.067Z,57.80
2018-04-07T05:50:47.148Z,56.30
2018-04-07T05:53:15.177Z,56.40
2018-04-07T05:55:43.211Z,56.30
2018-04-07T05:58:11.259Z,56.30
2018-04-07T06:00:39.292Z,56.40
2018-04-07T06:03:08.095Z,57.30
2018-04-07T06:05:36.139Z,57.70
2018-04-07T06:08:04.172Z,57.30
2018-04-07T06:10:32.204Z,57.50
2018-04-07T06:13:00.247Z,56.20
2018-04-07T06:15:28.283Z,57.20
2018-04-07T06:17:57.078Z,57.10
2018-04-07T06:20:25.121Z,57.00
2018-04-07T06:22:53.210Z,56.80
2018-04-07T06:25:21.185Z,56.70
2018-04-07T06:27:49.232Z,56.50
2018-04-07T06:30:17.262Z,56.60
2018-04-07T06:32:45.307Z,57.00
2018-04-07T06:35:13.368Z,56.80
2018-04-07T06:37:42.168Z,57.30
2018-04-07T06:40:10.200Z,57.20
2018-04-07T06:42:38.248Z,56.50
2018-04-07T06:45:06.283Z,56.90
2018-04-07T06:47:34.315Z,56.50
2018-04-07T06:50:02.368Z,56.80
2018-04-07T06:52:30.414Z,56.00
2018-04-07T06:54:58.486Z,55.90
2018-04-07T06:57:26.540Z,55.70
2018-04-07T06:59:54.563Z,56.30
2018-04-07T07:02:22.600Z,56.30
2018-04-07T07:04:50.682Z,55.90
2018-04-07T07:07:18.716Z,55.80
2018-04-07T07:09:46.763Z,56.00
2018-04-07T07:12:14.794Z,57.40
2018-04-07T07:14:46.908Z,56.10
2018-04-07T07:17:14.928Z,56.40
2018-04-07T07:19:42.959Z,56.10
2018-04-07T07:22:11.799Z,55.70
2018-04-07T07:24:39.827Z,55.70
2018-04-07T07:27:07.859Z,55.20
2018-04-07T07:29:35.959Z,55.50
2018-04-07T07:32:03.950Z,55.70
2018-04-07T07:34:31.984Z,55.00
2018-04-07T07:37:00.036Z,55.20
2018-04-07T07:39:28.095Z,55.40
2018-04-07T07:42:03.045Z,55.10
2018-04-07T07:44:32.068Z,55.10
2018-04-07T07:47:00.096Z,55.00
2018-04-07T07:49:28.144Z,55.30
2018-04-07T07:51:58.123Z,54.90
2018-04-07T07:54:26.151Z,55.30
2018-04-07T07:56:54.232Z,55.40
2018-04-07T07:59:22.311Z,56.00
2018-04-07T08:01:50.352Z,53.70
2018-04-07T08:04:20.315Z,53.90
2018-04-07T08:06:49.320Z,53.80
2018-04-07T08:09:17.361Z,53.80
2018-04-07T08:11:45.395Z,53.30
2018-04-07T08:14:14.484Z,53.80
2018-04-07T08:16:43.298Z,53.90
2018-04-07T08:19:11.339Z,53.90
2018-04-07T08:21:42.355Z,53.70
2018-04-07T08:24:10.391Z,53.60
2018-04-07T08:26:38.458Z,53.50
2018-04-07T08:29:06.495Z,53.30
2018-04-07T08:31:35.298Z,53.50
2018-04-07T08:34:03.375Z,53.40
2018-04-07T08:36:31.422Z,53.60
2018-04-07T08:38:59.454Z,53.40
2018-04-07T08:41:27.515Z,53.40
2018-04-07T08:43:55.590Z,53.30
2018-04-07T08:46:23.693Z,54.20
2018-04-07T08:48:51.756Z,52.80
2018-04-07T08:51:19.800Z,53.50
2018-04-07T08:53:47.839Z,53.40
2018-04-07T08:56:16.653Z,53.40
2018-04-07T08:58:46.852Z,53.40
2018-04-07T09:01:14.883Z,52.70
2018-04-07T09:03:42.931Z,53.10
2018-04-07T09:06:11.007Z,52.40
2018-04-07T09:08:39.112Z,52.60
2018-04-07T09:11:07.151Z,51.80
2018-04-07T09:13:35.216Z,52.80
2018-04-07T09:16:03.268Z,52.10
2018-04-07T09:18:31.301Z,52.80
2018-04-07T09:20:59.368Z,52.80
2018-04-07T09:23:27.399Z,52.70
2018-04-07T09:25:55.435Z,52.50
2018-04-07T09:28:23.486Z,52.50
2018-04-07T09:30:51.555Z,52.20
2018-04-07T09:33:19.602Z,52.60
2018-04-07T09:35:47.699Z,53.10
2018-04-07T09:38:17.859Z,52.50
2018-04-07T09:40:45.892Z,52.50
2018-04-07T09:43:16.119Z,53.30
2018-04-07T09:45:44.146Z,52.60
2018-04-07T09:48:14.098Z,53.00
2018-04-07T09:50:42.142Z,51.60
2018-04-07T09:53:10.190Z,50.60
2018-04-07T09:55:39.011Z,51.20
2018-04-07T09:58:07.840Z,52.80
2018-04-07T10:00:36.648Z,52.30
2018-04-07T10:03:05.919Z,52.30
2018-04-07T10:05:33.963Z,52.40
2018-04-07T10:08:02.007Z,52.40
2018-04-07T10:10:30.074Z,52.50
2018-04-07T10:12:58.108Z,51.20
2018-04-07T10:15:26.151Z,50.80
2018-04-07T10:17:54.215Z,51.20
2018-04-07T10:20:22.255Z,52.00
2018-04-07T10:22:50.288Z,49.50
2018-04-07T10:25:18.351Z,50.20
2018-04-07T10:27:46.403Z,51.50
2018-04-07T10:30:15.243Z,51.90
2018-04-07T10:32:46.164Z,51.60
2018-04-07T10:35:14.200Z,51.60
2018-04-07T10:37:42.248Z,50.90
2018-04-07T10:40:11.299Z,50.60
2018-04-07T10:42:39.352Z,50.00
2018-04-07T10:45:07.423Z,50.70
2018-04-07T10:47:35.468Z,50.30
2018-04-07T10:50:03.507Z,50.10
2018-04-07T10:52:32.347Z,50.40
2018-04-07T10:55:00.379Z,50.40
2018-04-07T10:57:28.416Z,50.10
2018-04-07T10:59:56.504Z,49.80
2018-04-07T11:02:24.514Z,48.10
2018-04-07T11:04:52.551Z,47.90
2018-04-07T11:07:21.376Z,49.80
2018-04-07T11:09:49.416Z,49.70
2018-04-07T11:12:17.467Z,49.90
2018-04-07T11:14:45.524Z,50.70
2018-04-07T11:17:18.541Z,48.50
2018-04-07T11:19:46.550Z,49.70
2018-04-07T11:22:14.588Z,48.50
2018-04-07T11:24:43.424Z,46.70
2018-04-07T11:27:11.467Z,46.70
2018-04-07T11:29:39.511Z,48.30
2018-04-07T11:32:08.355Z,48.70
2018-04-07T11:34:37.168Z,49.20
2018-04-07T11:37:06.185Z,48.70
2018-04-07T11:39:34.208Z,47.20
2018-04-07T11:42:02.288Z,47.90
2018-04-07T11:44:30.327Z,47.40
2018-04-07T11:46:58.387Z,48.60
2018-04-07T11:49:27.216Z,48.60
2018-04-07T11:51:59.219Z,48.60
2018-04-07T11:54:27.248Z,48.50
2018-04-07T11:56:55.314Z,44.40
2018-04-07T11:59:23.378Z,46.10
2018-04-07T12:01:51.411Z,48.30
2018-04-07T12:04:20.249Z,47.40
2018-04-07T12:06:48.300Z,47.10
2018-04-07T12:09:21.247Z,48.40
2018-04-07T12:11:49.275Z,47.50
2018-04-07T12:14:17.311Z,45.20
2018-04-07T12:16:46.139Z,47.60
2018-04-07T12:19:14.191Z,47.60
2018-04-07T12:21:42.223Z,46.70
2018-04-07T12:24:10.275Z,46.90
2018-04-07T12:26:38.387Z,43.90
2018-04-07T12:29:07.188Z,46.20
2018-04-07T12:31:35.231Z,46.20
2018-04-07T12:34:03.311Z,45.10
2018-04-07T12:36:31.360Z,43.70
2018-04-07T12:38:59.398Z,43.60
2018-04-07T12:41:27.447Z,43.70
2018-04-07T12:43:55.483Z,44.70
2018-04-07T12:46:23.519Z,45.40
2018-04-07T12:48:55.623Z,42.50
2018-04-07T12:51:23.667Z,43.70
2018-04-07T12:53:51.712Z,43.70
2018-04-07T12:56:19.772Z,43.60
2018-04-07T12:58:47.831Z,42.80
2018-04-07T13:01:16.666Z,41.60
2018-04-07T13:03:44.695Z,41.40
2018-04-07T13:06:15.810Z,41.20
2018-04-07T13:08:43.867Z,40.90
2018-04-07T13:11:11.905Z,41.00
2018-04-07T13:13:39.955Z,41.90
2018-04-07T13:16:08.770Z,41.80
2018-04-07T13:18:39.877Z,41.80
2018-04-07T13:21:08.679Z,40.40
2018-04-07T13:23:36.720Z,40.40
2018-04-07T13:26:04.774Z,39.30
2018-04-07T13:28:32.826Z,39.00
2018-04-07T13:31:00.879Z,39.80
2018-04-07T13:33:38.444Z,39.20
2018-04-07T13:35:56.971Z,39.60
2018-04-07T13:38:25.023Z,38.80
2018-04-07T13:40:53.103Z,41.00
2018-04-07T13:43:21.139Z,40.30
2018-04-07T13:45:49.200Z,40.70
2018-04-07T13:48:17.231Z,39.30
2018-04-07T13:50:45.268Z,37.90
2018-04-07T13:53:13.336Z,38.90
2018-04-07T13:55:41.368Z,39.50
2018-04-07T13:58:10.172Z,39.00
2018-04-07T14:00:38.995Z,39.40
2018-04-07T14:03:07.036Z,39.40
2018-04-07T14:05:35.072Z,41.60
2018-04-07T14:08:03.152Z,40.80
2018-04-07T14:10:31.198Z,39.70
2018-04-07T14:12:59.259Z,40.10
2018-04-07T14:15:27.319Z,38.30
2018-04-07T14:17:55.359Z,38.10
2018-04-07T14:20:24.223Z,40.30
2018-04-07T14:22:52.268Z,40.30
2018-04-07T14:25:20.303Z,39.30
2018-04-07T14:27:48.339Z,39.50
2018-04-07T14:30:16.407Z,36.80
2018-04-07T14:32:44.467Z,37.40
2018-04-07T14:35:12.515Z,38.50
2018-04-07T14:37:40.547Z,39.30
2018-04-07T14:40:09.367Z,37.60
2018-04-07T14:42:37.467Z,37.60
2018-04-07T14:45:06.276Z,37.80
2018-04-07T14:47:34.329Z,37.90
2018-04-07T14:50:02.392Z,39.30
2018-04-07T14:52:30.457Z,37.00
2018-04-07T14:54:58.507Z,38.00
2018-04-07T14:57:26.562Z,35.30
2018-04-07T14:59:54.625Z,34.30
2018-04-07T15:02:23.807Z,36.50
2018-04-07T15:04:51.921Z,35.60
2018-04-07T15:07:19.960Z,35.00
2018-04-07T15:09:48.775Z,34.20
2018-04-07T15:12:16.831Z,34.00
2018-04-07T15:14:44.871Z,32.70
2018-04-07T15:17:12.953Z,29.20
2018-04-07T15:19:41.066Z,31.10
2018-04-07T15:22:09.087Z,30.80
2018-04-07T15:24:37.125Z,30.90
2018-04-07T15:27:05.158Z,30.80
2018-04-07T15:29:33.223Z,32.80
2018-04-07T15:32:03.420Z,32.70
2018-04-07T15:34:31.476Z,33.30
2018-04-07T15:36:59.510Z,33.80
2018-04-07T15:39:28.315Z,34.20
2018-04-07T15:41:56.374Z,34.10
2018-04-07T15:44:28.111Z,34.50
2018-04-07T15:46:56.162Z,34.50
2018-04-07T15:49:24.210Z,35.10
2018-04-07T15:51:52.268Z,35.60
2018-04-07T15:54:20.307Z,36.10
2018-04-07T15:56:49.131Z,35.70
2018-04-07T15:59:17.229Z,35.60
2018-04-07T16:01:45.227Z,36.20
2018-04-07T16:04:13.271Z,36.40
2018-04-07T16:06:41.335Z,36.40
2018-04-07T16:09:15.300Z,36.30
2018-04-07T16:11:43.350Z,35.20
2018-04-07T16:14:12.324Z,35.20
2018-04-07T16:16:40.395Z,36.40
2018-04-07T16:19:08.436Z,36.20
2018-04-07T16:21:36.495Z,36.40
2018-04-07T16:24:04.519Z,35.80
2018-04-07T16:26:32.567Z,36.40
2018-04-07T16:29:00.627Z,36.60
2018-04-07T16:31:28.698Z,35.00
2018-04-07T16:33:56.722Z,34.90
2018-04-07T16:36:25.532Z,35.80
2018-04-07T16:38:53.600Z,35.80
2018-04-07T16:41:22.487Z,36.00
2018-04-07T16:43:50.527Z,35.20
2018-04-07T16:46:18.564Z,35.60
2018-04-07T16:48:46.623Z,35.20
2018-04-07T16:51:14.655Z,34.90
2018-04-07T16:53:42.691Z,35.80
2018-04-07T16:56:21.528Z,36.30
2018-04-07T16:58:49.608Z,35.60
2018-04-07T17:01:17.639Z,35.70
2018-04-07T17:03:45.735Z,34.40
2018-04-07T17:06:13.753Z,33.40
2018-04-07T17:08:41.780Z,31.40
2018-04-07T17:11:15.811Z,28.90
2018-04-07T17:13:43.874Z,28.90
2018-04-07T17:17:09.747Z,27.30
2018-04-07T17:19:38.580Z,27.40
2018-04-07T17:22:07.400Z,26.90
2018-04-07T17:24:35.472Z,26.90
2018-04-07T17:27:03.527Z,27.40
2018-04-07T17:29:31.580Z,27.40
2018-04-07T17:32:04.607Z,27.60
2018-04-07T17:34:32.642Z,28.00
2018-04-07T17:37:00.703Z,28.70
2018-04-07T17:39:29.571Z,29.30
2018-04-07T17:41:57.622Z,30.30
2018-04-07T18:16:59.732Z,37.40
2018-04-07T18:19:27.815Z,37.30
2018-04-07T18:22:01.993Z,37.50
2018-04-07T18:24:30.076Z,37.50
2018-04-07T18:26:58.151Z,38.10
2018-04-07T18:29:26.253Z,38.10
2018-04-07T18:31:54.324Z,38.20
2018-04-07T18:34:22.399Z,38.10
2018-04-07T18:36:51.255Z,39.00
2018-04-07T18:39:19.348Z,38.50
2018-04-07T18:41:47.450Z,38.40
2018-04-07T18:44:16.274Z,38.70
2018-04-07T18:46:44.348Z,38.70
2018-04-07T18:49:12.410Z,38.60
2018-04-07T18:51:40.487Z,38.80
2018-04-07T18:54:08.571Z,39.20
2018-04-07T18:56:36.668Z,39.60
2018-04-07T18:59:04.703Z,39.30
2018-04-07T19:01:32.788Z,40.10
2018-04-07T19:04:00.880Z,39.40
2018-04-07T19:06:28.951Z,39.50
2018-04-07T19:08:56.988Z,39.30
2018-04-07T19:11:25.074Z,38.70
2018-04-07T19:13:53.196Z,38.60
2018-04-07T19:16:21.296Z,38.20
2018-04-07T19:18:49.331Z,37.40
2018-04-07T19:21:19.118Z,38.00
2018-04-07T19:23:47.204Z,38.10
2018-04-07T19:26:16.027Z,38.10
2018-04-07T19:28:44.115Z,38.00
2018-04-07T19:31:12.204Z,38.80
2018-04-07T19:33:40.255Z,38.90
2018-04-07T19:36:08.300Z,38.10
2018-04-07T19:38:36.352Z,38.90
2018-04-07T19:41:05.203Z,38.80
2018-04-07T19:43:33.238Z,38.70
2018-04-07T19:46:01.341Z,39.90
2018-04-07T19:48:29.459Z,39.30
2018-04-07T19:50:58.301Z,39.60
2018-04-07T19:53:26.391Z,39.60
2018-04-07T19:55:54.532Z,40.10
2018-04-07T19:58:22.602Z,40.50
2018-04-07T20:00:50.704Z,42.50
2018-04-07T20:03:18.771Z,41.10
2018-04-07T20:05:46.837Z,41.60
2018-04-07T20:08:14.967Z,42.30
2018-04-07T20:10:43.064Z,39.70
2018-04-07T20:13:11.199Z,38.60
2018-04-07T20:15:39.175Z,39.20
2018-04-07T20:18:07.290Z,40.30
2018-04-07T20:20:35.371Z,40.60
2018-04-07T20:23:03.417Z,41.10
2018-04-07T20:25:31.491Z,42.90
2018-04-07T20:27:59.571Z,42.10
2018-04-07T20:30:27.592Z,44.80
2018-04-07T20:32:56.441Z,45.20
2018-04-07T20:35:24.518Z,45.10
2018-04-07T20:37:52.590Z,43.30
2018-04-07T20:40:20.657Z,42.80
2018-04-07T20:42:48.724Z,43.60
2018-04-07T20:45:16.761Z,45.10
2018-04-07T20:47:44.813Z,45.30
2018-04-07T20:50:13.671Z,46.40
2018-04-07T20:52:41.744Z,46.30
2018-04-07T20:55:13.796Z,43.20
2018-04-07T20:57:41.867Z,42.70
2018-04-07T21:00:09.955Z,42.70
2018-04-07T21:02:38.064Z,42.30
2018-04-07T21:05:06.087Z,43.10
2018-04-07T21:07:34.149Z,45.20
2018-04-07T21:10:02.188Z,44.40
2018-04-07T21:12:30.266Z,44.20
2018-04-07T21:14:58.352Z,44.40
2018-04-07T21:17:26.392Z,43.40
2018-04-07T21:19:54.478Z,42.60
2018-04-07T21:22:22.568Z,42.20
2018-04-07T21:24:50.692Z,42.40
2018-04-07T21:27:18.747Z,42.50
2018-04-07T21:29:46.818Z,42.30
2018-04-07T21:32:14.897Z,42.80
2018-04-07T21:34:42.987Z,42.60
2018-04-07T21:37:11.136Z,42.20
2018-04-07T21:39:39.176Z,43.50
2018-04-07T21:42:07.235Z,44.70
2018-04-07T21:44:35.285Z,45.90
2018-04-07T21:47:03.334Z,45.90
2018-04-07T21:49:32.216Z,44.60
2018-04-07T21:52:01.063Z,44.60
2018-04-07T21:54:29.140Z,44.40
2018-04-07T21:56:57.231Z,43.60
2018-04-07T21:59:25.299Z,44.50
2018-04-07T22:01:53.368Z,44.70
2018-04-07T22:04:21.464Z,46.50
2018-04-07T22:06:50.298Z,48.40
2018-04-07T22:09:18.374Z,48.40
2018-04-07T22:11:46.427Z,49.60
2018-04-07T22:14:14.511Z,49.50
2018-04-07T22:16:42.592Z,49.50
2018-04-07T22:19:10.661Z,49.30
2018-04-07T22:21:38.739Z,47.20
2018-04-07T22:24:06.829Z,47.00
2018-04-07T22:26:34.940Z,47.50
2018-04-07T22:29:02.976Z,50.20
2018-04-07T22:31:31.029Z,49.10
2018-04-07T22:33:59.111Z,48.90
2018-04-07T22:36:27.187Z,49.30
2018-04-07T22:38:55.272Z,50.30
2018-04-07T22:41:23.393Z,51.30
2018-04-07T22:43:52.361Z,51.10
2018-04-07T22:46:20.451Z,51.10
2018-04-07T22:48:48.567Z,51.40
2018-04-07T22:51:16.656Z,51.40
2018-04-07T22:53:44.704Z,50.50
2018-04-07T22:56:12.751Z,49.10
2018-04-07T22:58:40.835Z,50.40
2018-04-07T23:01:14.896Z,49.30
2018-04-07T23:03:42.923Z,49.70
2018-04-07T23:06:11.820Z,51.20
2018-04-07T23:08:39.906Z,51.00
2018-04-07T23:11:07.979Z,52.30
2018-04-07T23:13:36.071Z,52.30
2018-04-07T23:16:04.908Z,52.90
2018-04-07T23:18:32.983Z,52.80
2018-04-07T23:21:01.076Z,52.80
2018-04-07T23:23:29.156Z,52.20
2018-04-07T23:25:57.218Z,52.50
2018-04-07T23:28:25.320Z,51.40
2018-04-07T23:30:54.184Z,53.10
2018-04-07T23:33:22.217Z,52.90
2018-04-07T23:35:50.291Z,52.00
2018-04-07T23:38:18.340Z,53.50
2018-04-07T23:40:46.428Z,51.50
2018-04-07T23:43:14.520Z,51.40
2018-04-07T23:45:42.522Z,52.40
2018-04-07T23:48:10.611Z,52.20
2018-04-07T23:50:38.687Z,52.80
2018-04-07T23:53:06.767Z,53.40
2018-04-07T23:55:34.858Z,53.00
2018-04-07T23:58:02.935Z,53.60
